sensor_id;sensor_type;location;lat;lon;timestamp;temperature;humidity
25214;DHT22;13160;51.834;4.706;2024-03-07T00:01:32;6.00;99.90
25214;DHT22;13160;51.834;4.706;2024-03-07T00:04:13;5.90;99.90
25214;DHT22;13160;51.834;4.706;2024-03-07T00:06:53;5.90;99.90
25214;DHT22;13160;51.834;4.706;2024-03-07T00:09:35;6.00;99.90
25214;DHT22;13160;51.834;4.706;2024-03-07T00:12:39;5.90;99.90
25214;DHT22;13160;51.834;4.706;2024-03-07T00:15:21;5.90;99.90
25214;DHT22;13160;51.834;4.706;2024-03-07T00:18:17;5.80;99.90
25214;DHT22;13160;51.834;4.706;2024-03-07T00:20:51;5.90;99.90
25214;DHT22;13160;51.834;4.706;2024-03-07T00:23:55;5.80;99.90
25214;DHT22;13160;51.834;4.706;2024-03-07T00:26:31;5.80;99.90
25214;DHT22;13160;51.834;4.706;2024-03-07T00:29:24;5.70;99.90
25214;DHT22;13160;51.834;4.706;2024-03-07T00:32:14;5.70;99.90
25214;DHT22;13160;51.834;4.706;2024-03-07T00:35:16;5.70;99.90
25214;DHT22;13160;51.834;4.706;2024-03-07T00:38:08;5.70;99.90
25214;DHT22;13160;51.834;4.706;2024-03-07T00:40:58;5.70;99.90
25214;DHT22;13160;51.834;4.706;2024-03-07T00:43:56;5.70;99.90
25214;DHT22;13160;51.834;4.706;2024-03-07T00:47:12;5.70;99.90
25214;DHT22;13160;51.834;4.706;2024-03-07T00:49:51;5.70;99.90
25214;DHT22;13160;51.834;4.706;2024-03-07T00:52:30;5.70;99.90
25214;DHT22;13160;51.834;4.706;2024-03-07T00:55:08;5.60;99.90
25214;DHT22;13160;51.834;4.706;2024-03-07T00:58:26;5.70;99.90
25214;DHT22;13160;51.834;4.706;2024-03-07T01:01:07;5.60;99.90
25214;DHT22;13160;51.834;4.706;2024-03-07T01:03:48;5.60;99.90
25214;DHT22;13160;51.834;4.706;2024-03-07T01:06:30;5.60;99.90
25214;DHT22;13160;51.834;4.706;2024-03-07T01:09:08;5.60;99.90
25214;DHT22;13160;51.834;4.706;2024-03-07T01:12:01;5.50;99.90
25214;DHT22;13160;51.834;4.706;2024-03-07T01:15:02;5.50;99.90
25214;DHT22;13160;51.834;4.706;2024-03-07T01:18:02;5.50;99.90
25214;DHT22;13160;51.834;4.706;2024-03-07T01:20:57;5.50;99.90
25214;DHT22;13160;51.834;4.706;2024-03-07T01:23:44;5.50;99.90
25214;DHT22;13160;51.834;4.706;2024-03-07T01:26:48;5.40;99.90
25214;DHT22;13160;51.834;4.706;2024-03-07T01:29:29;5.40;99.90
25214;DHT22;13160;51.834;4.706;2024-03-07T01:32:08;5.40;99.90
25214;DHT22;13160;51.834;4.706;2024-03-07T01:34:57;5.40;99.90
25214;DHT22;13160;51.834;4.706;2024-03-07T01:37:46;5.30;99.90
25214;DHT22;13160;51.834;4.706;2024-03-07T01:40:39;5.30;99.90
25214;DHT22;13160;51.834;4.706;2024-03-07T01:43:13;5.30;99.90
25214;DHT22;13160;51.834;4.706;2024-03-07T01:45:50;5.20;99.90
25214;DHT22;13160;51.834;4.706;2024-03-07T01:48:53;5.20;99.90
25214;DHT22;13160;51.834;4.706;2024-03-07T01:51:37;5.20;99.90
25214;DHT22;13160;51.834;4.706;2024-03-07T01:54:15;5.20;99.90
25214;DHT22;13160;51.834;4.706;2024-03-07T01:57:12;5.20;99.90
25214;DHT22;13160;51.834;4.706;2024-03-07T02:00:02;5.10;99.90
25214;DHT22;13160;51.834;4.706;2024-03-07T02:02:45;5.10;99.90
25214;DHT22;13160;51.834;4.706;2024-03-07T02:05:19;5.10;99.90
25214;DHT22;13160;51.834;4.706;2024-03-07T02:08:08;5.10;99.90
25214;DHT22;13160;51.834;4.706;2024-03-07T02:10:56;5.10;99.90
25214;DHT22;13160;51.834;4.706;2024-03-07T02:13:40;5.00;99.90
25214;DHT22;13160;51.834;4.706;2024-03-07T02:16:16;5.00;99.90
25214;DHT22;13160;51.834;4.706;2024-03-07T02:19:19;5.00;99.90
25214;DHT22;13160;51.834;4.706;2024-03-07T02:22:18;4.90;99.90
25214;DHT22;13160;51.834;4.706;2024-03-07T02:24:53;5.00;99.90
25214;DHT22;13160;51.834;4.706;2024-03-07T02:27:25;4.90;99.90
25214;DHT22;13160;51.834;4.706;2024-03-07T02:30:12;4.90;99.90
25214;DHT22;13160;51.834;4.706;2024-03-07T02:32:51;4.90;99.90
25214;DHT22;13160;51.834;4.706;2024-03-07T02:35:27;4.90;99.90
25214;DHT22;13160;51.834;4.706;2024-03-07T02:38:22;4.80;99.90
25214;DHT22;13160;51.834;4.706;2024-03-07T02:40:58;4.80;99.90
25214;DHT22;13160;51.834;4.706;2024-03-07T02:43:32;4.80;99.90
25214;DHT22;13160;51.834;4.706;2024-03-07T02:46:16;4.70;99.90
25214;DHT22;13160;51.834;4.706;2024-03-07T02:49:11;4.80;99.90
25214;DHT22;13160;51.834;4.706;2024-03-07T02:51:46;4.80;99.90
25214;DHT22;13160;51.834;4.706;2024-03-07T02:54:22;4.70;99.90
25214;DHT22;13160;51.834;4.706;2024-03-07T02:57:15;4.70;99.90
25214;DHT22;13160;51.834;4.706;2024-03-07T02:59:49;4.70;99.90
25214;DHT22;13160;51.834;4.706;2024-03-07T03:02:26;4.70;99.90
25214;DHT22;13160;51.834;4.706;2024-03-07T03:05:01;4.70;99.90
25214;DHT22;13160;51.834;4.706;2024-03-07T03:07:39;4.60;99.90
25214;DHT22;13160;51.834;4.706;2024-03-07T03:10:14;4.60;99.90
25214;DHT22;13160;51.834;4.706;2024-03-07T03:13:02;4.60;99.90
25214;DHT22;13160;51.834;4.706;2024-03-07T03:15:53;4.60;99.90
25214;DHT22;13160;51.834;4.706;2024-03-07T03:18:40;4.60;99.90
25214;DHT22;13160;51.834;4.706;2024-03-07T03:21:17;4.60;99.90
25214;DHT22;13160;51.834;4.706;2024-03-07T03:23:57;4.60;99.90
25214;DHT22;13160;51.834;4.706;2024-03-07T03:27:02;4.60;99.90
25214;DHT22;13160;51.834;4.706;2024-03-07T03:29:40;4.60;99.90
25214;DHT22;13160;51.834;4.706;2024-03-07T03:32:22;4.60;99.90
25214;DHT22;13160;51.834;4.706;2024-03-07T03:35:03;4.60;99.90
25214;DHT22;13160;51.834;4.706;2024-03-07T03:37:58;4.50;99.90
25214;DHT22;13160;51.834;4.706;2024-03-07T03:40:33;4.60;99.90
25214;DHT22;13160;51.834;4.706;2024-03-07T03:43:21;4.60;99.90
25214;DHT22;13160;51.834;4.706;2024-03-07T03:46:10;4.60;99.90
25214;DHT22;13160;51.834;4.706;2024-03-07T03:48:54;4.50;99.90
25214;DHT22;13160;51.834;4.706;2024-03-07T03:51:33;4.50;99.90
25214;DHT22;13160;51.834;4.706;2024-03-07T03:54:07;4.50;99.90
25214;DHT22;13160;51.834;4.706;2024-03-07T03:57:01;4.50;99.90
25214;DHT22;13160;51.834;4.706;2024-03-07T03:59:44;4.50;99.90
25214;DHT22;13160;51.834;4.706;2024-03-07T04:02:34;4.50;99.90
25214;DHT22;13160;51.834;4.706;2024-03-07T04:05:22;4.50;99.90
25214;DHT22;13160;51.834;4.706;2024-03-07T04:08:01;4.50;99.90
25214;DHT22;13160;51.834;4.706;2024-03-07T04:10:38;4.50;99.90
25214;DHT22;13160;51.834;4.706;2024-03-07T04:13:25;4.60;99.90
25214;DHT22;13160;51.834;4.706;2024-03-07T04:16:06;4.60;99.90
25214;DHT22;13160;51.834;4.706;2024-03-07T04:19:01;4.60;99.90
25214;DHT22;13160;51.834;4.706;2024-03-07T04:21:40;4.70;99.90
25214;DHT22;13160;51.834;4.706;2024-03-07T05:34:09;5.00;99.90
25214;DHT22;13160;51.834;4.706;2024-03-07T05:37:21;5.00;99.90
25214;DHT22;13160;51.834;4.706;2024-03-07T05:41:06;4.90;99.90
25214;DHT22;13160;51.834;4.706;2024-03-07T05:57:22;4.80;99.90
25214;DHT22;13160;51.834;4.706;2024-03-07T06:00:15;4.80;99.90
25214;DHT22;13160;51.834;4.706;2024-03-07T06:03:20;4.70;99.90
25214;DHT22;13160;51.834;4.706;2024-03-07T06:05:51;4.70;99.90
25214;DHT22;13160;51.834;4.706;2024-03-07T06:08:27;4.70;99.90
25214;DHT22;13160;51.834;4.706;2024-03-07T06:10:58;4.70;99.90
25214;DHT22;13160;51.834;4.706;2024-03-07T06:13:32;4.60;99.90
25214;DHT22;13160;51.834;4.706;2024-03-07T06:19:32;4.70;99.90
25214;DHT22;13160;51.834;4.706;2024-03-07T06:22:29;4.70;99.90
25214;DHT22;13160;51.834;4.706;2024-03-07T06:25:03;4.70;99.90
25214;DHT22;13160;51.834;4.706;2024-03-07T06:27:47;4.60;99.90
25214;DHT22;13160;51.834;4.706;2024-03-07T06:31:51;4.60;99.90
25214;DHT22;13160;51.834;4.706;2024-03-07T06:39:27;4.60;99.90
25214;DHT22;13160;51.834;4.706;2024-03-07T06:42:56;4.60;99.90
25214;DHT22;13160;51.834;4.706;2024-03-07T06:45:36;4.60;99.90
25214;DHT22;13160;51.834;4.706;2024-03-07T06:48:15;4.60;99.90
25214;DHT22;13160;51.834;4.706;2024-03-07T06:56:44;4.60;99.90
25214;DHT22;13160;51.834;4.706;2024-03-07T06:59:13;4.60;99.90
25214;DHT22;13160;51.834;4.706;2024-03-07T07:01:46;4.60;99.90
25214;DHT22;13160;51.834;4.706;2024-03-07T07:04:23;4.60;99.90
25214;DHT22;13160;51.834;4.706;2024-03-07T07:06:58;4.60;99.90
25214;DHT22;13160;51.834;4.706;2024-03-07T07:31:06;4.70;99.90
25214;DHT22;13160;51.834;4.706;2024-03-07T07:36:14;4.70;99.90
25214;DHT22;13160;51.834;4.706;2024-03-07T07:38:44;4.80;99.90
25214;DHT22;13160;51.834;4.706;2024-03-07T07:43:55;4.80;99.90
25214;DHT22;13160;51.834;4.706;2024-03-07T07:46:28;4.80;99.90
25214;DHT22;13160;51.834;4.706;2024-03-07T07:48:57;4.90;99.90
25214;DHT22;13160;51.834;4.706;2024-03-07T07:51:27;4.80;99.90
25214;DHT22;13160;51.834;4.706;2024-03-07T07:53:57;4.90;99.90
25214;DHT22;13160;51.834;4.706;2024-03-07T07:56:27;4.90;99.90
25214;DHT22;13160;51.834;4.706;2024-03-07T07:58:56;4.90;99.90
25214;DHT22;13160;51.834;4.706;2024-03-07T08:01:25;5.00;99.90
25214;DHT22;13160;51.834;4.706;2024-03-07T08:03:55;5.00;99.90
25214;DHT22;13160;51.834;4.706;2024-03-07T08:06:27;5.10;99.90
25214;DHT22;13160;51.834;4.706;2024-03-07T08:08:57;5.20;99.90
25214;DHT22;13160;51.834;4.706;2024-03-07T08:11:26;5.30;99.90
25214;DHT22;13160;51.834;4.706;2024-03-07T08:13:55;5.30;99.90
25214;DHT22;13160;51.834;4.706;2024-03-07T08:16:24;5.30;99.90
25214;DHT22;13160;51.834;4.706;2024-03-07T08:18:52;5.40;99.90
25214;DHT22;13160;51.834;4.706;2024-03-07T08:21:23;5.50;99.90
25214;DHT22;13160;51.834;4.706;2024-03-07T08:23:52;5.50;99.90
25214;DHT22;13160;51.834;4.706;2024-03-07T08:26:22;5.60;99.90
25214;DHT22;13160;51.834;4.706;2024-03-07T08:28:51;5.60;99.90
25214;DHT22;13160;51.834;4.706;2024-03-07T08:31:21;5.70;99.90
25214;DHT22;13160;51.834;4.706;2024-03-07T08:33:50;5.80;99.90
25214;DHT22;13160;51.834;4.706;2024-03-07T08:36:22;5.90;99.90
25214;DHT22;13160;51.834;4.706;2024-03-07T08:38:51;5.90;99.90
25214;DHT22;13160;51.834;4.706;2024-03-07T08:41:20;5.90;99.90
25214;DHT22;13160;51.834;4.706;2024-03-07T08:43:48;6.10;99.90
25214;DHT22;13160;51.834;4.706;2024-03-07T08:46:18;6.10;99.90
25214;DHT22;13160;51.834;4.706;2024-03-07T08:48:47;6.20;99.90
25214;DHT22;13160;51.834;4.706;2024-03-07T08:51:16;6.20;99.90
25214;DHT22;13160;51.834;4.706;2024-03-07T08:53:46;6.30;99.90
25214;DHT22;13160;51.834;4.706;2024-03-07T08:56:14;6.40;99.90
25214;DHT22;13160;51.834;4.706;2024-03-07T08:58:43;6.50;99.90
25214;DHT22;13160;51.834;4.706;2024-03-07T09:01:11;6.50;99.90
25214;DHT22;13160;51.834;4.706;2024-03-07T09:03:40;6.60;99.90
25214;DHT22;13160;51.834;4.706;2024-03-07T09:06:08;6.70;99.90
25214;DHT22;13160;51.834;4.706;2024-03-07T09:08:40;6.80;99.90
25214;DHT22;13160;51.834;4.706;2024-03-07T09:11:11;6.80;99.90
25214;DHT22;13160;51.834;4.706;2024-03-07T09:13:40;7.00;99.90
25214;DHT22;13160;51.834;4.706;2024-03-07T09:16:09;7.00;99.90
25214;DHT22;13160;51.834;4.706;2024-03-07T09:18:39;7.10;99.90
25214;DHT22;13160;51.834;4.706;2024-03-07T09:21:07;7.20;99.90
25214;DHT22;13160;51.834;4.706;2024-03-07T09:23:37;7.20;99.90
25214;DHT22;13160;51.834;4.706;2024-03-07T09:26:05;7.30;99.90
25214;DHT22;13160;51.834;4.706;2024-03-07T09:28:35;7.40;99.90
25214;DHT22;13160;51.834;4.706;2024-03-07T09:31:04;7.50;99.90
25214;DHT22;13160;51.834;4.706;2024-03-07T09:33:32;7.50;99.90
25214;DHT22;13160;51.834;4.706;2024-03-07T09:36:01;7.60;99.90
25214;DHT22;13160;51.834;4.706;2024-03-07T09:38:31;7.70;99.90
25214;DHT22;13160;51.834;4.706;2024-03-07T09:41:01;7.70;99.90
25214;DHT22;13160;51.834;4.706;2024-03-07T09:43:59;7.80;99.90
25214;DHT22;13160;51.834;4.706;2024-03-07T09:47:00;8.00;99.90
25214;DHT22;13160;51.834;4.706;2024-03-07T09:49:58;8.00;99.90
25214;DHT22;13160;51.834;4.706;2024-03-07T09:52:27;8.10;99.90
25214;DHT22;13160;51.834;4.706;2024-03-07T09:54:56;8.10;99.90
25214;DHT22;13160;51.834;4.706;2024-03-07T09:57:26;8.20;99.90
25214;DHT22;13160;51.834;4.706;2024-03-07T09:59:57;8.20;99.90
25214;DHT22;13160;51.834;4.706;2024-03-07T10:02:27;8.30;99.90
25214;DHT22;13160;51.834;4.706;2024-03-07T10:04:56;8.40;99.90
25214;DHT22;13160;51.834;4.706;2024-03-07T10:07:26;8.40;99.90
25214;DHT22;13160;51.834;4.706;2024-03-07T10:09:54;8.50;99.90
25214;DHT22;13160;51.834;4.706;2024-03-07T10:12:26;8.50;99.90
25214;DHT22;13160;51.834;4.706;2024-03-07T10:14:57;8.60;99.90
25214;DHT22;13160;51.834;4.706;2024-03-07T10:17:25;8.70;99.90
25214;DHT22;13160;51.834;4.706;2024-03-07T10:19:54;8.80;99.90
25214;DHT22;13160;51.834;4.706;2024-03-07T10:22:23;8.80;99.90
25214;DHT22;13160;51.834;4.706;2024-03-07T10:24:51;8.90;99.90
25214;DHT22;13160;51.834;4.706;2024-03-07T10:27:25;9.00;99.90
25214;DHT22;13160;51.834;4.706;2024-03-07T10:29:56;9.00;99.90
25214;DHT22;13160;51.834;4.706;2024-03-07T10:32:26;9.10;99.90
25214;DHT22;13160;51.834;4.706;2024-03-07T10:34:55;9.10;99.90
25214;DHT22;13160;51.834;4.706;2024-03-07T10:37:25;9.20;99.90
25214;DHT22;13160;51.834;4.706;2024-03-07T10:39:54;9.20;99.90
25214;DHT22;13160;51.834;4.706;2024-03-07T10:42:25;9.30;99.90
25214;DHT22;13160;51.834;4.706;2024-03-07T10:45:04;9.30;99.90
25214;DHT22;13160;51.834;4.706;2024-03-07T10:47:38;9.40;99.90
25214;DHT22;13160;51.834;4.706;2024-03-07T10:50:13;9.40;99.90
25214;DHT22;13160;51.834;4.706;2024-03-07T10:52:49;9.50;99.90
25214;DHT22;13160;51.834;4.706;2024-03-07T10:55:31;9.50;99.90
25214;DHT22;13160;51.834;4.706;2024-03-07T10:58:09;9.60;99.90
25214;DHT22;13160;51.834;4.706;2024-03-07T11:00:45;9.60;99.90
25214;DHT22;13160;51.834;4.706;2024-03-07T11:03:14;9.70;99.90
25214;DHT22;13160;51.834;4.706;2024-03-07T11:05:43;9.70;99.90
25214;DHT22;13160;51.834;4.706;2024-03-07T11:08:13;9.80;99.90
25214;DHT22;13160;51.834;4.706;2024-03-07T11:10:44;9.90;99.90
25214;DHT22;13160;51.834;4.706;2024-03-07T11:13:15;10.00;99.90
25214;DHT22;13160;51.834;4.706;2024-03-07T11:15:47;10.00;99.90
25214;DHT22;13160;51.834;4.706;2024-03-07T11:18:18;10.00;99.90
25214;DHT22;13160;51.834;4.706;2024-03-07T11:20:48;10.00;99.90
25214;DHT22;13160;51.834;4.706;2024-03-07T11:23:26;10.00;99.90
25214;DHT22;13160;51.834;4.706;2024-03-07T11:26:04;10.00;99.90
25214;DHT22;13160;51.834;4.706;2024-03-07T11:28:35;10.10;99.90
25214;DHT22;13160;51.834;4.706;2024-03-07T11:31:12;10.10;99.90
25214;DHT22;13160;51.834;4.706;2024-03-07T11:33:41;10.10;99.90
25214;DHT22;13160;51.834;4.706;2024-03-07T11:36:11;10.10;99.90
25214;DHT22;13160;51.834;4.706;2024-03-07T11:38:44;10.20;99.90
25214;DHT22;13160;51.834;4.706;2024-03-07T11:41:14;10.30;99.90
25214;DHT22;13160;51.834;4.706;2024-03-07T11:43:43;10.30;99.90
25214;DHT22;13160;51.834;4.706;2024-03-07T11:46:13;10.30;99.90
25214;DHT22;13160;51.834;4.706;2024-03-07T11:48:44;10.40;99.90
25214;DHT22;13160;51.834;4.706;2024-03-07T11:51:18;10.40;99.90
25214;DHT22;13160;51.834;4.706;2024-03-07T11:53:54;10.50;99.90
25214;DHT22;13160;51.834;4.706;2024-03-07T11:56:23;10.50;99.90
25214;DHT22;13160;51.834;4.706;2024-03-07T11:58:53;10.50;99.90
25214;DHT22;13160;51.834;4.706;2024-03-07T12:01:27;10.50;99.90
25214;DHT22;13160;51.834;4.706;2024-03-07T12:03:58;10.50;99.90
25214;DHT22;13160;51.834;4.706;2024-03-07T12:06:32;10.50;99.90
25214;DHT22;13160;51.834;4.706;2024-03-07T12:09:04;10.50;99.90
25214;DHT22;13160;51.834;4.706;2024-03-07T12:11:43;10.60;99.90
25214;DHT22;13160;51.834;4.706;2024-03-07T12:14:12;10.60;99.90
25214;DHT22;13160;51.834;4.706;2024-03-07T12:16:42;10.60;99.90
25214;DHT22;13160;51.834;4.706;2024-03-07T12:19:12;10.60;99.90
25214;DHT22;13160;51.834;4.706;2024-03-07T12:21:46;10.60;99.90
25214;DHT22;13160;51.834;4.706;2024-03-07T12:24:15;10.60;99.90
25214;DHT22;13160;51.834;4.706;2024-03-07T12:26:44;10.70;99.90
25214;DHT22;13160;51.834;4.706;2024-03-07T12:29:13;10.70;99.90
25214;DHT22;13160;51.834;4.706;2024-03-07T12:31:43;10.70;99.90
25214;DHT22;13160;51.834;4.706;2024-03-07T12:34:12;10.80;99.90
25214;DHT22;13160;51.834;4.706;2024-03-07T12:36:41;10.80;99.90
25214;DHT22;13160;51.834;4.706;2024-03-07T12:39:22;10.90;99.90
25214;DHT22;13160;51.834;4.706;2024-03-07T12:41:56;10.90;99.90
25214;DHT22;13160;51.834;4.706;2024-03-07T12:44:25;10.90;99.90
25214;DHT22;13160;51.834;4.706;2024-03-07T12:46:56;10.90;99.90
25214;DHT22;13160;51.834;4.706;2024-03-07T12:49:25;10.90;99.90
25214;DHT22;13160;51.834;4.706;2024-03-07T12:51:54;10.90;99.90
25214;DHT22;13160;51.834;4.706;2024-03-07T12:54:23;10.90;99.90
25214;DHT22;13160;51.834;4.706;2024-03-07T12:56:54;10.90;99.90
25214;DHT22;13160;51.834;4.706;2024-03-07T12:59:23;11.00;99.90
25214;DHT22;13160;51.834;4.706;2024-03-07T13:01:53;11.10;99.90
25214;DHT22;13160;51.834;4.706;2024-03-07T13:04:25;11.10;99.90
25214;DHT22;13160;51.834;4.706;2024-03-07T13:06:54;11.10;99.90
25214;DHT22;13160;51.834;4.706;2024-03-07T13:09:26;11.10;99.90
25214;DHT22;13160;51.834;4.706;2024-03-07T13:11:55;11.20;99.90
25214;DHT22;13160;51.834;4.706;2024-03-07T13:14:24;11.20;99.90
25214;DHT22;13160;51.834;4.706;2024-03-07T13:16:52;11.20;99.90
25214;DHT22;13160;51.834;4.706;2024-03-07T13:19:21;11.20;99.90
25214;DHT22;13160;51.834;4.706;2024-03-07T13:21:53;11.10;99.90
25214;DHT22;13160;51.834;4.706;2024-03-07T13:24:22;11.10;99.90
25214;DHT22;13160;51.834;4.706;2024-03-07T13:26:53;11.20;99.90
25214;DHT22;13160;51.834;4.706;2024-03-07T13:43:36;11.10;99.90
25214;DHT22;13160;51.834;4.706;2024-03-07T13:46:06;11.20;99.90
25214;DHT22;13160;51.834;4.706;2024-03-07T13:48:35;11.30;99.90
25214;DHT22;13160;51.834;4.706;2024-03-07T13:51:04;11.30;99.90
25214;DHT22;13160;51.834;4.706;2024-03-07T13:53:35;11.40;99.90
25214;DHT22;13160;51.834;4.706;2024-03-07T13:56:32;11.50;99.90
25214;DHT22;13160;51.834;4.706;2024-03-07T14:02:38;11.50;99.90
25214;DHT22;13160;51.834;4.706;2024-03-07T14:05:57;11.50;99.90
25214;DHT22;13160;51.834;4.706;2024-03-07T14:12:29;11.50;99.90
25214;DHT22;13160;51.834;4.706;2024-03-07T14:15:38;11.50;99.90
25214;DHT22;13160;51.834;4.706;2024-03-07T14:22:13;11.40;99.90
25214;DHT22;13160;51.834;4.706;2024-03-07T14:28:15;11.40;99.90
25214;DHT22;13160;51.834;4.706;2024-03-07T14:31:14;11.30;99.90
25214;DHT22;13160;51.834;4.706;2024-03-07T14:33:54;11.20;99.90
25214;DHT22;13160;51.834;4.706;2024-03-07T14:36:40;11.20;99.90
25214;DHT22;13160;51.834;4.706;2024-03-07T14:39:13;11.20;99.90
25214;DHT22;13160;51.834;4.706;2024-03-07T14:41:48;11.20;99.90
25214;DHT22;13160;51.834;4.706;2024-03-07T14:44:19;11.20;99.90
25214;DHT22;13160;51.834;4.706;2024-03-07T14:47:05;11.20;99.90
25214;DHT22;13160;51.834;4.706;2024-03-07T14:49:40;11.10;99.90
25214;DHT22;13160;51.834;4.706;2024-03-07T14:52:35;11.10;99.90
25214;DHT22;13160;51.834;4.706;2024-03-07T14:55:17;11.10;99.90
25214;DHT22;13160;51.834;4.706;2024-03-07T14:58:07;11.10;99.90
25214;DHT22;13160;51.834;4.706;2024-03-07T15:00:45;11.00;99.90
25214;DHT22;13160;51.834;4.706;2024-03-07T15:03:28;11.00;99.90
25214;DHT22;13160;51.834;4.706;2024-03-07T15:06:21;10.90;99.90
25214;DHT22;13160;51.834;4.706;2024-03-07T15:09:07;10.90;99.90
25214;DHT22;13160;51.834;4.706;2024-03-07T15:11:45;10.80;99.90
25214;DHT22;13160;51.834;4.706;2024-03-07T15:14:14;10.80;99.90
25214;DHT22;13160;51.834;4.706;2024-03-07T15:16:55;10.80;99.90
25214;DHT22;13160;51.834;4.706;2024-03-07T15:19:27;10.70;99.90
25214;DHT22;13160;51.834;4.706;2024-03-07T15:21:58;10.70;99.90
25214;DHT22;13160;51.834;4.706;2024-03-07T15:24:36;10.60;99.90
25214;DHT22;13160;51.834;4.706;2024-03-07T15:27:13;10.70;99.90
25214;DHT22;13160;51.834;4.706;2024-03-07T15:29:44;10.60;99.90
25214;DHT22;13160;51.834;4.706;2024-03-07T15:32:15;10.60;99.90
25214;DHT22;13160;51.834;4.706;2024-03-07T15:35:05;10.60;99.90
25214;DHT22;13160;51.834;4.706;2024-03-07T15:37:51;10.60;99.90
25214;DHT22;13160;51.834;4.706;2024-03-07T15:40:26;10.50;99.90
25214;DHT22;13160;51.834;4.706;2024-03-07T15:43:28;10.50;99.90
25214;DHT22;13160;51.834;4.706;2024-03-07T15:49:10;10.40;99.90
25214;DHT22;13160;51.834;4.706;2024-03-07T15:51:47;10.50;99.90
25214;DHT22;13160;51.834;4.706;2024-03-07T15:54:31;10.50;99.90
25214;DHT22;13160;51.834;4.706;2024-03-07T15:57:02;10.50;99.90
25214;DHT22;13160;51.834;4.706;2024-03-07T15:59:41;10.50;99.90
25214;DHT22;13160;51.834;4.706;2024-03-07T16:02:52;10.50;99.90
25214;DHT22;13160;51.834;4.706;2024-03-07T16:05:27;10.50;99.90
25214;DHT22;13160;51.834;4.706;2024-03-07T16:08:29;10.50;99.90
25214;DHT22;13160;51.834;4.706;2024-03-07T16:11:39;10.40;99.90
25214;DHT22;13160;51.834;4.706;2024-03-07T16:14:10;10.40;99.90
25214;DHT22;13160;51.834;4.706;2024-03-07T16:16:39;10.30;99.90
25214;DHT22;13160;51.834;4.706;2024-03-07T16:19:09;10.30;99.90
25214;DHT22;13160;51.834;4.706;2024-03-07T16:21:38;10.30;99.90
25214;DHT22;13160;51.834;4.706;2024-03-07T16:24:09;10.30;99.90
25214;DHT22;13160;51.834;4.706;2024-03-07T16:26:37;10.30;99.90
25214;DHT22;13160;51.834;4.706;2024-03-07T16:29:10;10.20;99.90
25214;DHT22;13160;51.834;4.706;2024-03-07T16:31:38;10.20;99.90
25214;DHT22;13160;51.834;4.706;2024-03-07T16:34:09;10.20;99.90
25214;DHT22;13160;51.834;4.706;2024-03-07T16:36:46;10.10;99.90
25214;DHT22;13160;51.834;4.706;2024-03-07T16:39:15;10.00;99.90
25214;DHT22;13160;51.834;4.706;2024-03-07T16:41:44;10.00;99.90
25214;DHT22;13160;51.834;4.706;2024-03-07T16:44:13;9.90;99.90
25214;DHT22;13160;51.834;4.706;2024-03-07T16:47:10;9.90;99.90
25214;DHT22;13160;51.834;4.706;2024-03-07T16:49:43;9.80;99.90
25214;DHT22;13160;51.834;4.706;2024-03-07T16:52:34;9.70;99.90
25214;DHT22;13160;51.834;4.706;2024-03-07T16:55:06;9.60;99.90
25214;DHT22;13160;51.834;4.706;2024-03-07T16:57:39;9.60;99.90
25214;DHT22;13160;51.834;4.706;2024-03-07T17:00:15;9.50;99.90
25214;DHT22;13160;51.834;4.706;2024-03-07T17:02:55;9.50;99.90
25214;DHT22;13160;51.834;4.706;2024-03-07T17:05:27;9.40;99.90
25214;DHT22;13160;51.834;4.706;2024-03-07T17:07:59;9.40;99.90
25214;DHT22;13160;51.834;4.706;2024-03-07T17:10:51;9.40;99.90
25214;DHT22;13160;51.834;4.706;2024-03-07T17:13:30;9.30;99.90
25214;DHT22;13160;51.834;4.706;2024-03-07T17:16:08;9.30;99.90
25214;DHT22;13160;51.834;4.706;2024-03-07T17:18:39;9.30;99.90
25214;DHT22;13160;51.834;4.706;2024-03-07T17:21:08;9.20;99.90
25214;DHT22;13160;51.834;4.706;2024-03-07T17:23:39;9.10;99.90
25214;DHT22;13160;51.834;4.706;2024-03-07T17:26:15;9.00;99.90
25214;DHT22;13160;51.834;4.706;2024-03-07T17:28:44;9.00;99.90
25214;DHT22;13160;51.834;4.706;2024-03-07T17:31:14;8.90;99.90
25214;DHT22;13160;51.834;4.706;2024-03-07T17:33:43;8.90;99.90
25214;DHT22;13160;51.834;4.706;2024-03-07T17:36:12;8.80;99.90
25214;DHT22;13160;51.834;4.706;2024-03-07T17:38:40;8.80;99.90
25214;DHT22;13160;51.834;4.706;2024-03-07T17:41:11;8.80;99.90
25214;DHT22;13160;51.834;4.706;2024-03-07T17:43:41;8.70;99.90
25214;DHT22;13160;51.834;4.706;2024-03-07T17:46:10;8.70;99.90
25214;DHT22;13160;51.834;4.706;2024-03-07T17:48:40;8.70;99.90
25214;DHT22;13160;51.834;4.706;2024-03-07T17:51:09;8.70;99.90
25214;DHT22;13160;51.834;4.706;2024-03-07T17:53:37;8.60;99.90
25214;DHT22;13160;51.834;4.706;2024-03-07T17:56:06;8.60;99.90
25214;DHT22;13160;51.834;4.706;2024-03-07T17:58:37;8.60;99.90
25214;DHT22;13160;51.834;4.706;2024-03-07T18:01:11;8.50;99.90
25214;DHT22;13160;51.834;4.706;2024-03-07T18:10:14;8.40;99.90
25214;DHT22;13160;51.834;4.706;2024-03-07T18:12:45;8.40;99.90
25214;DHT22;13160;51.834;4.706;2024-03-07T18:31:23;8.30;99.90
25214;DHT22;13160;51.834;4.706;2024-03-07T18:33:59;8.30;99.90
25214;DHT22;13160;51.834;4.706;2024-03-07T18:37:22;8.20;99.90
25214;DHT22;13160;51.834;4.706;2024-03-07T18:40:52;8.20;99.90
25214;DHT22;13160;51.834;4.706;2024-03-07T18:44:13;8.20;99.90
25214;DHT22;13160;51.834;4.706;2024-03-07T18:46:44;8.10;99.90
25214;DHT22;13160;51.834;4.706;2024-03-07T18:49:14;8.10;99.90
25214;DHT22;13160;51.834;4.706;2024-03-07T18:51:50;8.00;99.90
25214;DHT22;13160;51.834;4.706;2024-03-07T18:55:00;8.10;99.90
25214;DHT22;13160;51.834;4.706;2024-03-07T19:39:47;7.10;99.90
25214;DHT22;13160;51.834;4.706;2024-03-07T19:42:26;7.10;99.90
25214;DHT22;13160;51.834;4.706;2024-03-07T19:48:38;7.00;99.90
25214;DHT22;13160;51.834;4.706;2024-03-07T19:51:22;7.00;99.90
25214;DHT22;13160;51.834;4.706;2024-03-07T19:53:56;6.90;99.90
25214;DHT22;13160;51.834;4.706;2024-03-07T19:56:26;6.90;99.90
25214;DHT22;13160;51.834;4.706;2024-03-07T19:58:55;6.90;99.90
25214;DHT22;13160;51.834;4.706;2024-03-07T20:01:24;6.90;99.90
25214;DHT22;13160;51.834;4.706;2024-03-07T20:03:53;6.80;99.90
25214;DHT22;13160;51.834;4.706;2024-03-07T20:06:22;6.80;99.90
25214;DHT22;13160;51.834;4.706;2024-03-07T20:08:52;6.80;99.90
25214;DHT22;13160;51.834;4.706;2024-03-07T20:11:34;6.80;99.90
25214;DHT22;13160;51.834;4.706;2024-03-07T20:14:08;6.70;99.90
25214;DHT22;13160;51.834;4.706;2024-03-07T20:16:52;6.70;99.90
25214;DHT22;13160;51.834;4.706;2024-03-07T20:19:23;6.70;99.90
25214;DHT22;13160;51.834;4.706;2024-03-07T20:21:56;6.60;99.90
25214;DHT22;13160;51.834;4.706;2024-03-07T20:24:30;6.60;99.90
25214;DHT22;13160;51.834;4.706;2024-03-07T20:31:34;6.50;99.90
25214;DHT22;13160;51.834;4.706;2024-03-07T20:34:07;6.50;99.90
25214;DHT22;13160;51.834;4.706;2024-03-07T20:36:49;6.50;99.90
25214;DHT22;13160;51.834;4.706;2024-03-07T20:39:18;6.40;99.90
25214;DHT22;13160;51.834;4.706;2024-03-07T20:41:50;6.40;99.90